createdAt,value
2022-08-21T00:02:50.949Z,19.53
2022-08-21T00:07:54.009Z,18.88
2022-08-21T00:12:56.984Z,18.08
2022-08-21T00:18:01.184Z,20.37
2022-08-21T00:23:04.881Z,20.92
2022-08-21T00:28:07.732Z,16.57
2022-08-21T00:33:11.477Z,18.92
2022-08-21T00:38:14.203Z,16.38
2022-08-21T00:43:20.539Z,18.07
2022-08-21T00:48:24.421Z,16.60
2022-08-21T00:53:29.293Z,16.53
2022-08-21T00:58:33.496Z,16.75
2022-08-21T01:03:37.433Z,18.88
2022-08-21T01:08:40.676Z,18.30
2022-08-21T01:13:50.477Z,16.90
2022-08-21T01:18:53.348Z,14.63
2022-08-21T01:23:58.023Z,17.27
2022-08-21T01:29:13.211Z,17.15
2022-08-21T01:34:17.221Z,18.57
2022-08-21T01:39:19.870Z,15.40
2022-08-21T01:44:24.035Z,16.13
2022-08-21T01:49:26.859Z,16.35
2022-08-21T01:54:30.107Z,18.90
2022-08-21T01:59:33.870Z,15.93
2022-08-21T02:04:36.836Z,19.48
2022-08-21T02:09:40.220Z,20.40
2022-08-21T02:14:43.268Z,24.90
2022-08-21T02:19:46.318Z,21.10
2022-08-21T02:24:50.147Z,24.37
2022-08-21T02:29:58.805Z,22.77
2022-08-21T02:35:01.433Z,22.00
2022-08-21T02:40:04.881Z,23.08
2022-08-21T02:45:08.780Z,22.05
2022-08-21T02:50:11.743Z,24.90
2022-08-21T02:55:14.514Z,17.20
2022-08-21T03:00:18.141Z,21.17
2022-08-21T03:05:20.938Z,18.92
2022-08-21T03:10:24.125Z,19.30
2022-08-21T03:15:28.224Z,16.80
2022-08-21T03:20:32.245Z,18.63
2022-08-21T03:25:40.715Z,16.67
2022-08-21T03:30:47.564Z,16.70
2022-08-21T03:35:59.200Z,14.95
2022-08-21T03:41:02.834Z,15.83
2022-08-21T03:46:07.683Z,15.98
2022-08-21T03:51:10.689Z,13.73
2022-08-21T03:56:13.491Z,17.40
2022-08-21T04:01:16.556Z,17.38
2022-08-21T04:06:19.354Z,13.93
2022-08-21T04:11:21.987Z,18.23
2022-08-21T04:16:24.602Z,16.80
2022-08-21T04:21:27.299Z,15.32
2022-08-21T04:26:32.144Z,18.63
2022-08-21T04:31:38.208Z,17.13
2022-08-21T04:36:40.868Z,18.50
2022-08-21T04:41:43.546Z,15.73
2022-08-21T04:46:46.234Z,18.70
2022-08-21T04:51:49.273Z,18.38
2022-08-21T04:56:57.504Z,16.13
2022-08-21T05:02:02.248Z,21.48
2022-08-21T05:07:08.402Z,21.70
2022-08-21T05:12:11.767Z,20.15
2022-08-21T05:17:14.628Z,19.27
2022-08-21T05:22:22.787Z,22.57
2022-08-21T05:27:25.660Z,26.17
2022-08-21T05:32:30.519Z,23.93
2022-08-21T05:37:33.608Z,25.38
2022-08-21T05:42:36.431Z,27.13
2022-08-21T05:47:39.133Z,32.03
2022-08-21T05:52:42.248Z,34.03
2022-08-21T05:57:45.173Z,29.03
2022-08-21T06:02:47.931Z,32.75
2022-08-21T06:07:50.751Z,37.47
2022-08-21T06:12:56.763Z,32.33
2022-08-21T06:17:59.520Z,34.65
2022-08-21T06:23:03.223Z,30.00
2022-08-21T06:28:08.461Z,30.13
2022-08-21T06:33:11.300Z,29.45
2022-08-21T06:38:14.138Z,31.80
2022-08-21T06:43:18.327Z,30.70
2022-08-21T06:48:21.098Z,31.97
2022-08-21T06:53:24.198Z,31.02
2022-08-21T06:58:27.105Z,37.25
2022-08-21T07:03:39.205Z,37.43
2022-08-21T07:08:42.120Z,38.33
2022-08-21T07:13:45.339Z,34.07
2022-08-21T07:18:48.298Z,36.42
2022-08-21T07:23:52.940Z,33.20
2022-08-21T07:28:55.753Z,32.10
2022-08-21T07:33:58.948Z,35.85
2022-08-21T07:39:01.998Z,40.47
2022-08-21T07:44:06.641Z,37.15
2022-08-21T07:49:09.650Z,32.10
2022-08-21T07:54:14.509Z,39.40
2022-08-21T07:59:20.148Z,34.05
2022-08-21T08:04:26.348Z,36.30
2022-08-21T08:09:29.458Z,34.22
2022-08-21T08:14:32.625Z,38.58
2022-08-21T08:19:35.433Z,32.73
2022-08-21T08:24:40.228Z,32.40
2022-08-21T08:29:43.209Z,38.13
2022-08-21T08:34:48.012Z,36.60
2022-08-21T08:39:50.845Z,34.72
2022-08-21T08:45:05.225Z,41.10
2022-08-21T08:50:18.229Z,34.60
2022-08-21T08:55:33.449Z,37.47
2022-08-21T09:00:36.317Z,33.65
2022-08-21T09:05:49.517Z,36.22
2022-08-21T09:11:04.321Z,32.93
2022-08-21T09:16:30.463Z,34.15
2022-08-21T09:22:04.370Z,38.63
2022-08-21T09:27:18.929Z,33.10
2022-08-21T09:32:37.078Z,31.90
2022-08-21T09:37:56.303Z,36.87
2022-08-21T09:43:12.493Z,31.15
2022-08-21T09:48:22.474Z,31.63
2022-08-21T09:53:35.425Z,34.17
2022-08-21T09:58:40.997Z,33.85
2022-08-21T10:03:44.328Z,31.83
2022-08-21T10:08:47.079Z,31.42
2022-08-21T10:14:18.311Z,35.87
2022-08-21T10:19:54.213Z,33.35
2022-08-21T10:25:14.131Z,30.05
2022-08-21T10:30:27.970Z,14.83
2022-08-21T10:35:35.399Z,7.32
2022-08-21T10:40:53.061Z,6.63
2022-08-21T10:46:07.837Z,7.72
2022-08-21T10:51:47.938Z,5.95
2022-08-21T10:56:58.091Z,5.40
2022-08-21T11:02:09.134Z,5.97
2022-08-21T11:07:37.319Z,6.13
2022-08-21T11:12:44.663Z,4.82
2022-08-21T11:18:01.573Z,4.40
2022-08-21T11:23:24.028Z,5.97
2022-08-21T11:28:53.690Z,5.68
2022-08-21T11:33:56.474Z,5.30
2022-08-21T11:39:11.804Z,5.22
2022-08-21T11:44:35.719Z,4.57
2022-08-21T11:50:10.964Z,5.07
2022-08-21T11:55:43.011Z,5.63
2022-08-21T12:00:53.752Z,5.47
2022-08-21T12:06:03.251Z,5.72
2022-08-21T12:11:31.032Z,5.78
2022-08-21T12:16:38.061Z,5.07
2022-08-21T12:21:51.798Z,6.30
2022-08-21T12:27:00.156Z,4.93
2022-08-21T12:32:12.189Z,5.03
2022-08-21T12:37:30.157Z,6.10
2022-08-21T12:42:56.606Z,4.87
2022-08-21T12:48:27.529Z,6.15
2022-08-21T12:53:40.209Z,5.27
2022-08-21T12:58:55.127Z,4.68
2022-08-21T13:04:04.878Z,7.03
2022-08-21T13:09:12.302Z,6.20
2022-08-21T13:14:27.029Z,5.55
2022-08-21T13:19:31.573Z,4.97
2022-08-21T13:24:42.686Z,6.57
2022-08-21T13:29:47.487Z,5.65
2022-08-21T13:34:57.083Z,6.90
2022-08-21T13:39:59.859Z,5.53
2022-08-21T13:45:02.759Z,7.33
2022-08-21T13:50:08.898Z,5.60
2022-08-21T13:55:17.331Z,5.72
2022-08-21T14:00:28.112Z,6.70
2022-08-21T14:05:34.288Z,6.78
2022-08-21T14:10:43.491Z,6.23
2022-08-21T14:16:00.023Z,5.60
2022-08-21T14:21:10.414Z,6.00
2022-08-21T14:26:13.231Z,6.03
2022-08-21T14:31:20.944Z,6.55
2022-08-21T14:36:24.041Z,5.27
2022-08-21T14:41:30.399Z,4.78
2022-08-21T14:46:35.580Z,4.72
2022-08-21T14:51:53.766Z,5.90
2022-08-21T14:56:59.649Z,6.03
2022-08-21T15:02:05.511Z,6.17
2022-08-21T15:07:08.595Z,8.70
2022-08-21T15:12:13.140Z,5.75
2022-08-21T15:17:15.980Z,6.83
2022-08-21T15:22:27.590Z,6.43
2022-08-21T15:27:30.879Z,6.87
2022-08-21T15:32:33.753Z,7.45
2022-08-21T15:37:37.090Z,7.43
2022-08-21T15:42:41.690Z,7.47
2022-08-21T15:47:46.299Z,7.22
2022-08-21T15:52:49.091Z,9.33
2022-08-21T15:57:56.836Z,7.75
2022-08-21T16:03:04.257Z,4.97
2022-08-21T16:08:07.735Z,8.93
2022-08-21T16:13:25.912Z,9.38
2022-08-21T16:18:28.806Z,12.27
2022-08-21T16:23:31.721Z,10.73
2022-08-21T16:28:36.549Z,10.25
2022-08-21T16:33:44.844Z,9.77
2022-08-21T16:38:48.729Z,10.48
2022-08-21T16:43:52.251Z,9.83
2022-08-21T16:48:55.146Z,8.63
2022-08-21T16:54:00.322Z,10.30
2022-08-21T16:59:05.208Z,8.83
2022-08-21T17:04:08.085Z,6.43
2022-08-21T17:09:10.935Z,4.77
2022-08-21T17:14:21.678Z,5.47
2022-08-21T17:19:24.617Z,5.22
2022-08-21T17:24:27.390Z,5.93
2022-08-21T17:29:38.841Z,5.55
2022-08-21T17:34:41.859Z,6.07
2022-08-21T17:39:44.997Z,8.00
2022-08-21T17:44:47.970Z,6.45
2022-08-21T17:49:51.190Z,8.50
2022-08-21T17:54:53.898Z,7.78
2022-08-21T17:59:58.439Z,6.77
2022-08-21T18:05:01.667Z,5.68
2022-08-21T18:10:13.445Z,7.25
2022-08-21T18:15:18.327Z,6.60
2022-08-21T18:20:23.287Z,7.63
2022-08-21T18:25:26.358Z,6.57
2022-08-21T18:30:29.109Z,6.38
2022-08-21T18:35:32.523Z,7.65
2022-08-21T18:40:39.405Z,7.60
2022-08-21T18:45:42.587Z,9.70
2022-08-21T18:50:47.931Z,6.90
2022-08-21T18:55:51.112Z,6.22
2022-08-21T19:00:55.801Z,8.40
2022-08-21T19:05:58.948Z,8.57
2022-08-21T19:11:03.007Z,7.20
2022-08-21T19:16:08.174Z,8.20
2022-08-21T19:21:12.630Z,7.85
2022-08-21T19:26:17.347Z,7.35
2022-08-21T19:31:23.988Z,6.60
2022-08-21T19:36:27.361Z,7.75
2022-08-21T19:41:33.908Z,7.57
2022-08-21T19:46:39.902Z,7.85
2022-08-21T19:51:44.243Z,8.45
2022-08-21T19:56:47.590Z,9.13
2022-08-21T20:01:51.020Z,9.13
2022-08-21T20:06:54.240Z,7.33
2022-08-21T20:12:04.147Z,6.68
2022-08-21T20:17:13.034Z,6.20
2022-08-21T20:22:16.751Z,5.67
2022-08-21T20:27:25.490Z,7.43
2022-08-21T20:32:28.372Z,5.53
2022-08-21T20:37:36.267Z,6.07
2022-08-21T20:48:12.200Z,5.00
2022-08-21T20:53:26.461Z,6.10
2022-08-21T20:59:00.820Z,7.50
2022-08-21T21:04:25.867Z,6.72
2022-08-21T21:09:46.000Z,5.25
2022-08-21T21:14:56.051Z,4.40
2022-08-21T21:20:14.050Z,4.45
2022-08-21T21:25:40.470Z,4.13
2022-08-21T21:30:46.886Z,4.93
2022-08-21T21:36:02.504Z,4.68
2022-08-21T21:41:35.340Z,3.73
2022-08-21T21:47:09.232Z,4.32
2022-08-21T21:52:30.581Z,5.17
2022-08-21T21:58:01.828Z,4.15
2022-08-21T22:03:23.057Z,3.42
2022-08-21T22:08:48.804Z,4.23
2022-08-21T22:13:53.608Z,4.97
2022-08-21T22:19:03.808Z,3.80
2022-08-21T22:24:35.918Z,5.60
2022-08-21T22:29:57.968Z,4.82
2022-08-21T22:35:16.058Z,4.00
2022-08-21T22:40:29.501Z,3.92
2022-08-21T22:45:54.510Z,3.10
2022-08-21T22:51:06.128Z,3.25
2022-08-21T22:56:10.473Z,3.45
2022-08-21T23:01:33.609Z,3.33
2022-08-21T23:07:13.664Z,3.38
2022-08-21T23:12:43.749Z,3.80
2022-08-21T23:18:12.265Z,3.85
2022-08-21T23:23:30.344Z,4.50
2022-08-21T23:28:48.730Z,2.80
2022-08-21T23:34:09.138Z,4.35
2022-08-21T23:39:42.463Z,3.50
2022-08-21T23:45:05.262Z,3.97
2022-08-21T23:50:29.073Z,3.20
2022-08-21T23:55:34.853Z,4.10
